sensor_id;sensor_type;location;lat;lon;timestamp;P1;durP1;ratioP1;P2;durP2;ratioP2
52866;SDS011;38739;53.324;6.862;2022-09-16T00:01:58;6.05;;;0.80;;
52866;SDS011;38739;53.324;6.862;2022-09-16T00:04:24;6.18;;;0.77;;
52866;SDS011;38739;53.324;6.862;2022-09-16T00:06:49;3.97;;;0.90;;
52866;SDS011;38739;53.324;6.862;2022-09-16T00:09:15;5.60;;;1.00;;
52866;SDS011;38739;53.324;6.862;2022-09-16T00:11:41;8.93;;;1.02;;
52866;SDS011;38739;53.324;6.862;2022-09-16T00:14:08;4.53;;;1.08;;
52866;SDS011;38739;53.324;6.862;2022-09-16T00:16:34;7.30;;;1.23;;
52866;SDS011;38739;53.324;6.862;2022-09-16T00:19:00;7.13;;;0.90;;
52866;SDS011;38739;53.324;6.862;2022-09-16T00:21:26;7.57;;;1.10;;
52866;SDS011;38739;53.324;6.862;2022-09-16T00:23:53;8.20;;;1.10;;
52866;SDS011;38739;53.324;6.862;2022-09-16T00:26:20;9.55;;;1.17;;
52866;SDS011;38739;53.324;6.862;2022-09-16T00:28:49;5.95;;;0.93;;
52866;SDS011;38739;53.324;6.862;2022-09-16T00:31:15;8.10;;;1.10;;
52866;SDS011;38739;53.324;6.862;2022-09-16T00:33:41;6.97;;;0.90;;
52866;SDS011;38739;53.324;6.862;2022-09-16T00:36:08;8.90;;;1.02;;
52866;SDS011;38739;53.324;6.862;2022-09-16T00:38:36;6.45;;;0.90;;
52866;SDS011;38739;53.324;6.862;2022-09-16T00:41:03;8.77;;;1.17;;
52866;SDS011;38739;53.324;6.862;2022-09-16T00:43:45;13.35;;;1.67;;
52866;SDS011;38739;53.324;6.862;2022-09-16T00:46:12;7.15;;;1.00;;
52866;SDS011;38739;53.324;6.862;2022-09-16T00:48:38;8.15;;;1.23;;
52866;SDS011;38739;53.324;6.862;2022-09-16T00:51:05;6.00;;;0.80;;
52866;SDS011;38739;53.324;6.862;2022-09-16T00:53:34;5.82;;;0.98;;
52866;SDS011;38739;53.324;6.862;2022-09-16T00:56:06;11.33;;;1.20;;
52866;SDS011;38739;53.324;6.862;2022-09-16T00:58:43;9.23;;;1.13;;
52866;SDS011;38739;53.324;6.862;2022-09-16T01:01:13;5.97;;;1.10;;
52866;SDS011;38739;53.324;6.862;2022-09-16T01:03:41;7.28;;;1.10;;
52866;SDS011;38739;53.324;6.862;2022-09-16T01:08:38;3.60;;;1.05;;
52866;SDS011;38739;53.324;6.862;2022-09-16T01:11:06;9.57;;;1.30;;
52866;SDS011;38739;53.324;6.862;2022-09-16T01:13:32;7.13;;;1.10;;
52866;SDS011;38739;53.324;6.862;2022-09-16T01:21:29;6.95;;;1.77;;
52866;SDS011;38739;53.324;6.862;2022-09-16T01:24:17;10.73;;;1.55;;
52866;SDS011;38739;53.324;6.862;2022-09-16T01:30:09;6.20;;;1.42;;
52866;SDS011;38739;53.324;6.862;2022-09-16T01:47:01;11.98;;;1.42;;
52866;SDS011;38739;53.324;6.862;2022-09-16T01:49:36;8.95;;;1.60;;
52866;SDS011;38739;53.324;6.862;2022-09-16T01:55:22;10.68;;;1.42;;
52866;SDS011;38739;53.324;6.862;2022-09-16T01:57:58;9.07;;;1.27;;
52866;SDS011;38739;53.324;6.862;2022-09-16T02:00:32;8.32;;;1.17;;
52866;SDS011;38739;53.324;6.862;2022-09-16T02:03:12;5.70;;;1.30;;
52866;SDS011;38739;53.324;6.862;2022-09-16T02:05:47;8.93;;;1.20;;
52866;SDS011;38739;53.324;6.862;2022-09-16T02:08:41;9.20;;;1.50;;
52866;SDS011;38739;53.324;6.862;2022-09-16T02:11:08;10.50;;;1.52;;
52866;SDS011;38739;53.324;6.862;2022-09-16T02:13:38;7.80;;;1.35;;
52866;SDS011;38739;53.324;6.862;2022-09-16T02:16:11;9.60;;;1.40;;
52866;SDS011;38739;53.324;6.862;2022-09-16T02:18:41;7.70;;;1.50;;
52866;SDS011;38739;53.324;6.862;2022-09-16T02:21:10;7.35;;;1.30;;
52866;SDS011;38739;53.324;6.862;2022-09-16T02:23:41;8.85;;;1.30;;
52866;SDS011;38739;53.324;6.862;2022-09-16T02:26:11;7.35;;;1.20;;
52866;SDS011;38739;53.324;6.862;2022-09-16T02:28:43;8.40;;;1.40;;
52866;SDS011;38739;53.324;6.862;2022-09-16T02:33:46;9.43;;;1.55;;
52866;SDS011;38739;53.324;6.862;2022-09-16T02:36:23;8.52;;;1.30;;
52866;SDS011;38739;53.324;6.862;2022-09-16T02:38:52;8.98;;;1.25;;
52866;SDS011;38739;53.324;6.862;2022-09-16T02:41:21;8.60;;;1.48;;
52866;SDS011;38739;53.324;6.862;2022-09-16T02:43:47;14.25;;;2.67;;
52866;SDS011;38739;53.324;6.862;2022-09-16T02:46:18;8.55;;;1.48;;
52866;SDS011;38739;53.324;6.862;2022-09-16T02:57:16;9.40;;;1.60;;
52866;SDS011;38739;53.324;6.862;2022-09-16T02:59:42;6.45;;;1.30;;
52866;SDS011;38739;53.324;6.862;2022-09-16T03:02:08;10.70;;;1.52;;
52866;SDS011;38739;53.324;6.862;2022-09-16T03:04:34;6.65;;;1.40;;
52866;SDS011;38739;53.324;6.862;2022-09-16T03:07:04;9.18;;;1.40;;
52866;SDS011;38739;53.324;6.862;2022-09-16T03:09:32;9.60;;;1.50;;
52866;SDS011;38739;53.324;6.862;2022-09-16T03:17:43;10.18;;;1.40;;
52866;SDS011;38739;53.324;6.862;2022-09-16T03:23:01;8.90;;;2.00;;
52866;SDS011;38739;53.324;6.862;2022-09-16T03:25:36;9.88;;;1.48;;
52866;SDS011;38739;53.324;6.862;2022-09-16T03:28:20;11.68;;;1.70;;
52866;SDS011;38739;53.324;6.862;2022-09-16T03:31:10;13.35;;;1.58;;
52866;SDS011;38739;53.324;6.862;2022-09-16T03:36:52;9.38;;;1.35;;
52866;SDS011;38739;53.324;6.862;2022-09-16T03:39:22;13.63;;;1.60;;
52866;SDS011;38739;53.324;6.862;2022-09-16T03:41:47;9.95;;;1.58;;
52866;SDS011;38739;53.324;6.862;2022-09-16T03:44:14;9.90;;;1.40;;
52866;SDS011;38739;53.324;6.862;2022-09-16T03:46:39;8.15;;;1.00;;
52866;SDS011;38739;53.324;6.862;2022-09-16T03:49:05;8.82;;;1.48;;
52866;SDS011;38739;53.324;6.862;2022-09-16T03:51:31;10.10;;;1.42;;
52866;SDS011;38739;53.324;6.862;2022-09-16T03:53:56;7.78;;;1.20;;
52866;SDS011;38739;53.324;6.862;2022-09-16T03:56:22;8.30;;;1.50;;
52866;SDS011;38739;53.324;6.862;2022-09-16T03:58:49;8.50;;;1.55;;
52866;SDS011;38739;53.324;6.862;2022-09-16T04:01:15;7.18;;;1.42;;
52866;SDS011;38739;53.324;6.862;2022-09-16T04:03:41;11.65;;;1.73;;
52866;SDS011;38739;53.324;6.862;2022-09-16T04:06:06;10.88;;;1.45;;
52866;SDS011;38739;53.324;6.862;2022-09-16T04:08:33;9.60;;;1.38;;
52866;SDS011;38739;53.324;6.862;2022-09-16T04:11:00;9.63;;;1.50;;
52866;SDS011;38739;53.324;6.862;2022-09-16T04:13:32;15.02;;;1.70;;
52866;SDS011;38739;53.324;6.862;2022-09-16T04:16:00;11.82;;;1.88;;
52866;SDS011;38739;53.324;6.862;2022-09-16T04:18:27;15.02;;;1.70;;
52866;SDS011;38739;53.324;6.862;2022-09-16T04:20:55;10.15;;;1.40;;
52866;SDS011;38739;53.324;6.862;2022-09-16T04:23:23;11.13;;;1.65;;
52866;SDS011;38739;53.324;6.862;2022-09-16T04:25:59;10.35;;;1.60;;
52866;SDS011;38739;53.324;6.862;2022-09-16T04:28:27;10.18;;;1.30;;
52866;SDS011;38739;53.324;6.862;2022-09-16T04:30:58;14.20;;;1.67;;
52866;SDS011;38739;53.324;6.862;2022-09-16T04:33:34;11.85;;;2.00;;
52866;SDS011;38739;53.324;6.862;2022-09-16T04:36:07;11.00;;;1.45;;
52866;SDS011;38739;53.324;6.862;2022-09-16T04:38:38;9.20;;;1.50;;
52866;SDS011;38739;53.324;6.862;2022-09-16T04:41:13;9.77;;;1.40;;
52866;SDS011;38739;53.324;6.862;2022-09-16T04:43:50;12.90;;;1.60;;
52866;SDS011;38739;53.324;6.862;2022-09-16T04:46:18;14.38;;;1.58;;
52866;SDS011;38739;53.324;6.862;2022-09-16T04:48:48;11.55;;;1.45;;
52866;SDS011;38739;53.324;6.862;2022-09-16T04:51:14;13.43;;;2.00;;
52866;SDS011;38739;53.324;6.862;2022-09-16T04:53:41;10.60;;;1.50;;
52866;SDS011;38739;53.324;6.862;2022-09-16T04:56:09;13.15;;;1.70;;
52866;SDS011;38739;53.324;6.862;2022-09-16T04:58:45;13.13;;;1.50;;
52866;SDS011;38739;53.324;6.862;2022-09-16T05:01:19;11.05;;;1.75;;
52866;SDS011;38739;53.324;6.862;2022-09-16T05:03:54;13.35;;;1.50;;
52866;SDS011;38739;53.324;6.862;2022-09-16T05:06:22;11.55;;;1.50;;
52866;SDS011;38739;53.324;6.862;2022-09-16T05:08:50;11.40;;;1.48;;
52866;SDS011;38739;53.324;6.862;2022-09-16T05:11:18;11.90;;;1.50;;
52866;SDS011;38739;53.324;6.862;2022-09-16T05:13:49;13.80;;;1.70;;
52866;SDS011;38739;53.324;6.862;2022-09-16T05:16:15;16.92;;;1.63;;
52866;SDS011;38739;53.324;6.862;2022-09-16T05:18:43;12.40;;;1.48;;
52866;SDS011;38739;53.324;6.862;2022-09-16T05:21:14;14.18;;;1.67;;
52866;SDS011;38739;53.324;6.862;2022-09-16T05:23:41;10.70;;;1.52;;
52866;SDS011;38739;53.324;6.862;2022-09-16T05:26:09;10.65;;;1.88;;
52866;SDS011;38739;53.324;6.862;2022-09-16T05:28:43;12.48;;;1.73;;
52866;SDS011;38739;53.324;6.862;2022-09-16T05:31:09;10.43;;;1.33;;
52866;SDS011;38739;53.324;6.862;2022-09-16T05:33:42;10.52;;;1.52;;
52866;SDS011;38739;53.324;6.862;2022-09-16T05:36:11;10.27;;;1.63;;
52866;SDS011;38739;53.324;6.862;2022-09-16T05:38:41;15.98;;;1.90;;
52866;SDS011;38739;53.324;6.862;2022-09-16T05:41:07;10.80;;;1.80;;
52866;SDS011;38739;53.324;6.862;2022-09-16T05:43:33;10.88;;;1.42;;
52866;SDS011;38739;53.324;6.862;2022-09-16T05:46:00;12.07;;;1.10;;
52866;SDS011;38739;53.324;6.862;2022-09-16T05:48:26;14.60;;;1.50;;
52866;SDS011;38739;53.324;6.862;2022-09-16T05:50:53;10.63;;;1.52;;
52866;SDS011;38739;53.324;6.862;2022-09-16T05:53:20;18.95;;;1.80;;
52866;SDS011;38739;53.324;6.862;2022-09-16T05:55:56;17.20;;;1.92;;
52866;SDS011;38739;53.324;6.862;2022-09-16T05:58:24;16.67;;;1.70;;
52866;SDS011;38739;53.324;6.862;2022-09-16T06:01:02;14.93;;;2.05;;
52866;SDS011;38739;53.324;6.862;2022-09-16T06:03:30;10.90;;;1.80;;
52866;SDS011;38739;53.324;6.862;2022-09-16T06:06:00;14.05;;;2.00;;
52866;SDS011;38739;53.324;6.862;2022-09-16T06:08:28;15.93;;;1.98;;
52866;SDS011;38739;53.324;6.862;2022-09-16T06:10:55;18.52;;;2.38;;
52866;SDS011;38739;53.324;6.862;2022-09-16T06:13:21;15.02;;;1.92;;
52866;SDS011;38739;53.324;6.862;2022-09-16T06:15:50;19.50;;;2.40;;
52866;SDS011;38739;53.324;6.862;2022-09-16T06:18:19;18.20;;;2.20;;
52866;SDS011;38739;53.324;6.862;2022-09-16T06:20:45;17.25;;;1.80;;
52866;SDS011;38739;53.324;6.862;2022-09-16T06:23:12;13.45;;;1.58;;
52866;SDS011;38739;53.324;6.862;2022-09-16T06:25:37;17.33;;;2.17;;
52866;SDS011;38739;53.324;6.862;2022-09-16T06:28:04;17.75;;;2.30;;
52866;SDS011;38739;53.324;6.862;2022-09-16T06:30:30;15.95;;;2.20;;
52866;SDS011;38739;53.324;6.862;2022-09-16T06:32:55;21.50;;;2.60;;
52866;SDS011;38739;53.324;6.862;2022-09-16T06:35:21;9.55;;;1.67;;
52866;SDS011;38739;53.324;6.862;2022-09-16T06:37:47;15.13;;;2.25;;
52866;SDS011;38739;53.324;6.862;2022-09-16T06:40:13;15.40;;;2.20;;
52866;SDS011;38739;53.324;6.862;2022-09-16T06:42:39;13.13;;;1.85;;
52866;SDS011;38739;53.324;6.862;2022-09-16T06:45:05;12.18;;;1.67;;
52866;SDS011;38739;53.324;6.862;2022-09-16T06:47:31;16.88;;;2.22;;
52866;SDS011;38739;53.324;6.862;2022-09-16T06:49:58;15.43;;;2.08;;
52866;SDS011;38739;53.324;6.862;2022-09-16T06:52:24;17.67;;;2.17;;
52866;SDS011;38739;53.324;6.862;2022-09-16T06:54:50;14.27;;;1.80;;
52866;SDS011;38739;53.324;6.862;2022-09-16T06:57:16;16.02;;;2.20;;
52866;SDS011;38739;53.324;6.862;2022-09-16T06:59:47;12.10;;;1.50;;
52866;SDS011;38739;53.324;6.862;2022-09-16T07:02:17;14.85;;;1.65;;
52866;SDS011;38739;53.324;6.862;2022-09-16T07:04:44;11.77;;;1.83;;
52866;SDS011;38739;53.324;6.862;2022-09-16T07:07:10;13.35;;;1.75;;
52866;SDS011;38739;53.324;6.862;2022-09-16T07:09:36;12.85;;;1.90;;
52866;SDS011;38739;53.324;6.862;2022-09-16T07:12:03;11.02;;;1.55;;
52866;SDS011;38739;53.324;6.862;2022-09-16T07:14:29;16.27;;;1.75;;
52866;SDS011;38739;53.324;6.862;2022-09-16T07:16:56;10.15;;;1.77;;
52866;SDS011;38739;53.324;6.862;2022-09-16T07:19:23;12.10;;;1.70;;
52866;SDS011;38739;53.324;6.862;2022-09-16T07:21:49;12.02;;;1.60;;
52866;SDS011;38739;53.324;6.862;2022-09-16T07:24:15;14.75;;;1.92;;
52866;SDS011;38739;53.324;6.862;2022-09-16T07:26:41;11.57;;;1.45;;
52866;SDS011;38739;53.324;6.862;2022-09-16T07:29:09;9.95;;;1.60;;
52866;SDS011;38739;53.324;6.862;2022-09-16T07:31:40;17.15;;;1.77;;
52866;SDS011;38739;53.324;6.862;2022-09-16T07:34:06;12.77;;;2.00;;
52866;SDS011;38739;53.324;6.862;2022-09-16T07:36:38;12.77;;;1.83;;
52866;SDS011;38739;53.324;6.862;2022-09-16T07:39:05;13.90;;;1.85;;
52866;SDS011;38739;53.324;6.862;2022-09-16T07:41:33;10.48;;;1.58;;
52866;SDS011;38739;53.324;6.862;2022-09-16T07:44:00;11.95;;;1.63;;
52866;SDS011;38739;53.324;6.862;2022-09-16T07:46:28;11.63;;;1.70;;
52866;SDS011;38739;53.324;6.862;2022-09-16T07:48:56;20.25;;;2.58;;
52866;SDS011;38739;53.324;6.862;2022-09-16T07:51:23;13.20;;;1.85;;
52866;SDS011;38739;53.324;6.862;2022-09-16T07:53:54;14.88;;;2.30;;
52866;SDS011;38739;53.324;6.862;2022-09-16T07:56:23;20.83;;;1.80;;
52866;SDS011;38739;53.324;6.862;2022-09-16T07:58:50;14.95;;;1.98;;
52866;SDS011;38739;53.324;6.862;2022-09-16T08:01:17;14.05;;;1.88;;
52866;SDS011;38739;53.324;6.862;2022-09-16T08:03:43;14.13;;;1.98;;
52866;SDS011;38739;53.324;6.862;2022-09-16T08:06:11;13.48;;;1.92;;
52866;SDS011;38739;53.324;6.862;2022-09-16T08:08:41;15.60;;;2.00;;
52866;SDS011;38739;53.324;6.862;2022-09-16T08:11:08;13.65;;;1.83;;
52866;SDS011;38739;53.324;6.862;2022-09-16T08:13:35;7.47;;;1.52;;
52866;SDS011;38739;53.324;6.862;2022-09-16T08:16:03;13.82;;;1.80;;
52866;SDS011;38739;53.324;6.862;2022-09-16T08:18:31;8.32;;;1.35;;
52866;SDS011;38739;53.324;6.862;2022-09-16T08:20:57;12.10;;;1.92;;
52866;SDS011;38739;53.324;6.862;2022-09-16T08:23:28;12.95;;;1.65;;
52866;SDS011;38739;53.324;6.862;2022-09-16T08:25:55;11.68;;;1.80;;
52866;SDS011;38739;53.324;6.862;2022-09-16T08:28:22;11.13;;;1.85;;
52866;SDS011;38739;53.324;6.862;2022-09-16T08:30:49;11.10;;;2.00;;
52866;SDS011;38739;53.324;6.862;2022-09-16T08:33:15;11.45;;;1.67;;
52866;SDS011;38739;53.324;6.862;2022-09-16T08:35:45;8.43;;;1.70;;
52866;SDS011;38739;53.324;6.862;2022-09-16T08:38:11;11.95;;;1.60;;
52866;SDS011;38739;53.324;6.862;2022-09-16T08:40:41;10.95;;;1.40;;
52866;SDS011;38739;53.324;6.862;2022-09-16T08:45:57;11.05;;;1.88;;
52866;SDS011;38739;53.324;6.862;2022-09-16T08:48:48;11.77;;;1.40;;
52866;SDS011;38739;53.324;6.862;2022-09-16T08:51:21;9.30;;;1.45;;
52866;SDS011;38739;53.324;6.862;2022-09-16T08:56:17;10.85;;;1.60;;
52866;SDS011;38739;53.324;6.862;2022-09-16T08:58:55;7.13;;;1.55;;
52866;SDS011;38739;53.324;6.862;2022-09-16T09:03:56;9.25;;;1.55;;
52866;SDS011;38739;53.324;6.862;2022-09-16T09:06:31;8.80;;;1.10;;
52866;SDS011;38739;53.324;6.862;2022-09-16T09:17:30;16.02;;;1.90;;
52866;SDS011;38739;53.324;6.862;2022-09-16T09:26:10;8.15;;;1.42;;
52866;SDS011;38739;53.324;6.862;2022-09-16T09:34:28;13.55;;;1.80;;
52866;SDS011;38739;53.324;6.862;2022-09-16T09:40:01;12.98;;;1.73;;
52866;SDS011;38739;53.324;6.862;2022-09-16T09:43:11;7.40;;;1.00;;
52866;SDS011;38739;53.324;6.862;2022-09-16T09:45:52;7.15;;;1.00;;
52866;SDS011;38739;53.324;6.862;2022-09-16T09:48:29;5.53;;;1.20;;
52866;SDS011;38739;53.324;6.862;2022-09-16T09:51:14;7.80;;;1.15;;
52866;SDS011;38739;53.324;6.862;2022-09-16T09:54:00;9.13;;;1.10;;
52866;SDS011;38739;53.324;6.862;2022-09-16T10:01:52;7.95;;;1.52;;
52866;SDS011;38739;53.324;6.862;2022-09-16T10:04:19;7.05;;;1.58;;
52866;SDS011;38739;53.324;6.862;2022-09-16T10:06:45;9.73;;;1.42;;
52866;SDS011;38739;53.324;6.862;2022-09-16T10:09:13;15.25;;;1.75;;
52866;SDS011;38739;53.324;6.862;2022-09-16T10:11:45;9.48;;;1.55;;
52866;SDS011;38739;53.324;6.862;2022-09-16T10:14:23;8.50;;;1.80;;
52866;SDS011;38739;53.324;6.862;2022-09-16T10:17:04;6.85;;;1.45;;
52866;SDS011;38739;53.324;6.862;2022-09-16T10:19:48;11.20;;;1.80;;
52866;SDS011;38739;53.324;6.862;2022-09-16T10:22:27;8.05;;;1.08;;
52866;SDS011;38739;53.324;6.862;2022-09-16T10:24:55;8.00;;;1.17;;
52866;SDS011;38739;53.324;6.862;2022-09-16T10:27:26;9.93;;;1.30;;
52866;SDS011;38739;53.324;6.862;2022-09-16T10:30:17;8.27;;;1.45;;
52866;SDS011;38739;53.324;6.862;2022-09-16T10:33:04;9.80;;;1.75;;
52866;SDS011;38739;53.324;6.862;2022-09-16T10:35:37;6.88;;;1.42;;
52866;SDS011;38739;53.324;6.862;2022-09-16T10:38:15;9.25;;;1.40;;
52866;SDS011;38739;53.324;6.862;2022-09-16T10:40:53;9.07;;;1.60;;
52866;SDS011;38739;53.324;6.862;2022-09-16T10:43:22;10.95;;;1.55;;
52866;SDS011;38739;53.324;6.862;2022-09-16T10:45:50;10.10;;;1.83;;
52866;SDS011;38739;53.324;6.862;2022-09-16T10:48:18;11.48;;;2.15;;
52866;SDS011;38739;53.324;6.862;2022-09-16T10:50:55;10.90;;;1.75;;
52866;SDS011;38739;53.324;6.862;2022-09-16T10:53:28;11.77;;;1.83;;
52866;SDS011;38739;53.324;6.862;2022-09-16T10:56:05;10.07;;;1.83;;
52866;SDS011;38739;53.324;6.862;2022-09-16T10:58:40;9.55;;;1.50;;
52866;SDS011;38739;53.324;6.862;2022-09-16T11:12:22;14.30;;;2.20;;
52866;SDS011;38739;53.324;6.862;2022-09-16T11:37:22;10.85;;;2.72;;
52866;SDS011;38739;53.324;6.862;2022-09-16T11:42:46;15.85;;;2.92;;
52866;SDS011;38739;53.324;6.862;2022-09-16T11:45:40;15.82;;;2.80;;
52866;SDS011;38739;53.324;6.862;2022-09-16T11:48:15;13.45;;;2.50;;
52866;SDS011;38739;53.324;6.862;2022-09-16T11:51:09;12.98;;;2.22;;
52866;SDS011;38739;53.324;6.862;2022-09-16T11:53:59;11.75;;;2.55;;
52866;SDS011;38739;53.324;6.862;2022-09-16T11:57:02;13.98;;;2.38;;
52866;SDS011;38739;53.324;6.862;2022-09-16T11:59:38;15.05;;;2.40;;
52866;SDS011;38739;53.324;6.862;2022-09-16T12:10:52;18.88;;;3.28;;
52866;SDS011;38739;53.324;6.862;2022-09-16T12:13:56;17.02;;;2.58;;
52866;SDS011;38739;53.324;6.862;2022-09-16T12:16:19;14.48;;;2.75;;
52866;SDS011;38739;53.324;6.862;2022-09-16T12:18:56;18.00;;;3.30;;
52866;SDS011;38739;53.324;6.862;2022-09-16T12:21:31;13.43;;;3.00;;
52866;SDS011;38739;53.324;6.862;2022-09-16T12:24:08;18.85;;;2.83;;
52866;SDS011;38739;53.324;6.862;2022-09-16T12:26:54;13.55;;;2.67;;
52866;SDS011;38739;53.324;6.862;2022-09-16T12:32:10;12.18;;;2.00;;
52866;SDS011;38739;53.324;6.862;2022-09-16T12:34:51;13.48;;;2.35;;
52866;SDS011;38739;53.324;6.862;2022-09-16T12:40:00;16.05;;;2.40;;
52866;SDS011;38739;53.324;6.862;2022-09-16T13:02:20;13.30;;;1.75;;
52866;SDS011;38739;53.324;6.862;2022-09-16T13:04:52;9.43;;;1.60;;
52866;SDS011;38739;53.324;6.862;2022-09-16T13:07:31;7.82;;;1.30;;
52866;SDS011;38739;53.324;6.862;2022-09-16T13:10:22;6.75;;;0.90;;
52866;SDS011;38739;53.324;6.862;2022-09-16T13:12:55;9.60;;;1.17;;
52866;SDS011;38739;53.324;6.862;2022-09-16T13:15:24;5.78;;;0.80;;
52866;SDS011;38739;53.324;6.862;2022-09-16T13:20:41;8.52;;;1.38;;
52866;SDS011;38739;53.324;6.862;2022-09-16T13:23:27;10.85;;;1.88;;
52866;SDS011;38739;53.324;6.862;2022-09-16T13:33:48;8.52;;;1.30;;
52866;SDS011;38739;53.324;6.862;2022-09-16T13:38:49;10.50;;;1.42;;
52866;SDS011;38739;53.324;6.862;2022-09-16T13:44:03;7.82;;;1.13;;
52866;SDS011;38739;53.324;6.862;2022-09-16T13:46:50;9.45;;;1.63;;
52866;SDS011;38739;53.324;6.862;2022-09-16T13:49:21;9.38;;;1.48;;
52866;SDS011;38739;53.324;6.862;2022-09-16T13:51:50;11.18;;;1.92;;
52866;SDS011;38739;53.324;6.862;2022-09-16T13:59:53;11.88;;;2.03;;
52866;SDS011;38739;53.324;6.862;2022-09-16T14:03:25;10.70;;;1.70;;
52866;SDS011;38739;53.324;6.862;2022-09-16T14:13:55;7.70;;;1.25;;
52866;SDS011;38739;53.324;6.862;2022-09-16T14:16:26;9.27;;;1.30;;
52866;SDS011;38739;53.324;6.862;2022-09-16T14:18:55;9.90;;;1.63;;
52866;SDS011;38739;53.324;6.862;2022-09-16T14:21:30;9.13;;;1.80;;
52866;SDS011;38739;53.324;6.862;2022-09-16T14:24:06;10.30;;;1.67;;
52866;SDS011;38739;53.324;6.862;2022-09-16T14:26:54;14.02;;;2.67;;
52866;SDS011;38739;53.324;6.862;2022-09-16T14:29:21;12.27;;;2.17;;
52866;SDS011;38739;53.324;6.862;2022-09-16T14:31:48;14.82;;;2.33;;
52866;SDS011;38739;53.324;6.862;2022-09-16T14:34:34;11.57;;;2.22;;
52866;SDS011;38739;53.324;6.862;2022-09-16T14:37:01;10.07;;;1.45;;
52866;SDS011;38739;53.324;6.862;2022-09-16T14:39:29;10.57;;;1.40;;
52866;SDS011;38739;53.324;6.862;2022-09-16T14:44:34;12.32;;;2.00;;
52866;SDS011;38739;53.324;6.862;2022-09-16T14:49:47;9.65;;;1.58;;
52866;SDS011;38739;53.324;6.862;2022-09-16T14:52:20;15.48;;;2.13;;
52866;SDS011;38739;53.324;6.862;2022-09-16T14:54:48;10.50;;;1.70;;
52866;SDS011;38739;53.324;6.862;2022-09-16T14:57:18;14.40;;;1.48;;
52866;SDS011;38739;53.324;6.862;2022-09-16T14:59:47;12.77;;;2.03;;
52866;SDS011;38739;53.324;6.862;2022-09-16T15:02:35;15.85;;;2.40;;
52866;SDS011;38739;53.324;6.862;2022-09-16T15:05:22;8.35;;;1.20;;
52866;SDS011;38739;53.324;6.862;2022-09-16T15:08:16;5.78;;;0.77;;
52866;SDS011;38739;53.324;6.862;2022-09-16T15:11:13;5.00;;;1.20;;
52866;SDS011;38739;53.324;6.862;2022-09-16T15:13:42;5.47;;;0.93;;
52866;SDS011;38739;53.324;6.862;2022-09-16T15:16:10;7.97;;;1.30;;
52866;SDS011;38739;53.324;6.862;2022-09-16T15:18:41;10.30;;;1.95;;
52866;SDS011;38739;53.324;6.862;2022-09-16T15:21:20;10.93;;;1.88;;
52866;SDS011;38739;53.324;6.862;2022-09-16T15:23:47;17.00;;;2.42;;
52866;SDS011;38739;53.324;6.862;2022-09-16T15:26:48;19.58;;;2.72;;
52866;SDS011;38739;53.324;6.862;2022-09-16T15:31:43;13.65;;;2.25;;
52866;SDS011;38739;53.324;6.862;2022-09-16T15:36:54;9.90;;;1.92;;
52866;SDS011;38739;53.324;6.862;2022-09-16T15:44:55;16.25;;;2.33;;
52866;SDS011;38739;53.324;6.862;2022-09-16T15:47:33;15.80;;;2.60;;
52866;SDS011;38739;53.324;6.862;2022-09-16T15:50:09;15.70;;;2.50;;
52866;SDS011;38739;53.324;6.862;2022-09-16T15:52:49;14.10;;;2.50;;
52866;SDS011;38739;53.324;6.862;2022-09-16T15:58:31;16.77;;;2.38;;
52866;SDS011;38739;53.324;6.862;2022-09-16T16:01:09;17.95;;;2.25;;
52866;SDS011;38739;53.324;6.862;2022-09-16T16:03:47;18.75;;;2.22;;
52866;SDS011;38739;53.324;6.862;2022-09-16T16:06:20;9.60;;;2.03;;
52866;SDS011;38739;53.324;6.862;2022-09-16T16:09:05;10.05;;;2.22;;
52866;SDS011;38739;53.324;6.862;2022-09-16T16:11:30;14.52;;;2.20;;
52866;SDS011;38739;53.324;6.862;2022-09-16T16:13:57;12.02;;;2.05;;
52866;SDS011;38739;53.324;6.862;2022-09-16T16:16:22;12.98;;;1.73;;
52866;SDS011;38739;53.324;6.862;2022-09-16T16:18:48;17.20;;;1.88;;
52866;SDS011;38739;53.324;6.862;2022-09-16T16:21:15;16.52;;;2.45;;
52866;SDS011;38739;53.324;6.862;2022-09-16T16:23:41;13.02;;;2.10;;
52866;SDS011;38739;53.324;6.862;2022-09-16T16:26:07;16.00;;;2.38;;
52866;SDS011;38739;53.324;6.862;2022-09-16T16:28:34;12.02;;;1.50;;
52866;SDS011;38739;53.324;6.862;2022-09-16T16:31:06;20.25;;;2.85;;
52866;SDS011;38739;53.324;6.862;2022-09-16T16:33:40;14.07;;;1.90;;
52866;SDS011;38739;53.324;6.862;2022-09-16T16:36:10;8.52;;;1.25;;
52866;SDS011;38739;53.324;6.862;2022-09-16T16:38:37;11.02;;;1.70;;
52866;SDS011;38739;53.324;6.862;2022-09-16T16:41:04;17.20;;;2.30;;
52866;SDS011;38739;53.324;6.862;2022-09-16T16:43:31;12.63;;;2.20;;
52866;SDS011;38739;53.324;6.862;2022-09-16T16:45:57;14.55;;;1.70;;
52866;SDS011;38739;53.324;6.862;2022-09-16T16:48:23;14.85;;;1.63;;
52866;SDS011;38739;53.324;6.862;2022-09-16T16:51:11;13.52;;;1.58;;
52866;SDS011;38739;53.324;6.862;2022-09-16T16:53:37;9.57;;;1.98;;
52866;SDS011;38739;53.324;6.862;2022-09-16T16:56:04;11.73;;;1.83;;
52866;SDS011;38739;53.324;6.862;2022-09-16T16:58:31;17.27;;;2.08;;
52866;SDS011;38739;53.324;6.862;2022-09-16T17:01:35;9.82;;;1.98;;
52866;SDS011;38739;53.324;6.862;2022-09-16T17:03:53;14.43;;;1.98;;
52866;SDS011;38739;53.324;6.862;2022-09-16T17:06:19;15.10;;;2.35;;
52866;SDS011;38739;53.324;6.862;2022-09-16T17:08:45;14.07;;;2.05;;
52866;SDS011;38739;53.324;6.862;2022-09-16T17:11:12;12.50;;;1.77;;
52866;SDS011;38739;53.324;6.862;2022-09-16T17:13:40;12.32;;;2.17;;
52866;SDS011;38739;53.324;6.862;2022-09-16T17:16:11;12.32;;;1.70;;
52866;SDS011;38739;53.324;6.862;2022-09-16T17:18:38;12.73;;;1.52;;
52866;SDS011;38739;53.324;6.862;2022-09-16T17:21:06;18.98;;;2.10;;
52866;SDS011;38739;53.324;6.862;2022-09-16T17:23:37;13.95;;;1.90;;
52866;SDS011;38739;53.324;6.862;2022-09-16T17:26:04;15.45;;;1.90;;
52866;SDS011;38739;53.324;6.862;2022-09-16T17:28:30;10.63;;;1.60;;
52866;SDS011;38739;53.324;6.862;2022-09-16T17:30:56;20.13;;;2.30;;
52866;SDS011;38739;53.324;6.862;2022-09-16T17:33:22;13.73;;;2.10;;
52866;SDS011;38739;53.324;6.862;2022-09-16T17:36:02;8.48;;;1.30;;
52866;SDS011;38739;53.324;6.862;2022-09-16T17:38:29;13.75;;;2.08;;
52866;SDS011;38739;53.324;6.862;2022-09-16T17:40:59;17.63;;;1.77;;
52866;SDS011;38739;53.324;6.862;2022-09-16T17:43:29;19.85;;;2.45;;
52866;SDS011;38739;53.324;6.862;2022-09-16T17:45:56;20.70;;;2.60;;
52866;SDS011;38739;53.324;6.862;2022-09-16T17:48:22;18.23;;;2.53;;
52866;SDS011;38739;53.324;6.862;2022-09-16T17:50:49;21.75;;;2.60;;
52866;SDS011;38739;53.324;6.862;2022-09-16T17:53:15;19.73;;;2.95;;
52866;SDS011;38739;53.324;6.862;2022-09-16T17:55:41;25.27;;;3.00;;
52866;SDS011;38739;53.324;6.862;2022-09-16T17:58:08;16.23;;;2.47;;
52866;SDS011;38739;53.324;6.862;2022-09-16T18:00:41;25.70;;;3.42;;
52866;SDS011;38739;53.324;6.862;2022-09-16T18:03:11;31.65;;;3.90;;
52866;SDS011;38739;53.324;6.862;2022-09-16T18:05:37;16.98;;;2.33;;
52866;SDS011;38739;53.324;6.862;2022-09-16T18:08:03;21.98;;;2.70;;
52866;SDS011;38739;53.324;6.862;2022-09-16T18:10:30;17.73;;;2.35;;
52866;SDS011;38739;53.324;6.862;2022-09-16T18:12:56;21.48;;;2.97;;
52866;SDS011;38739;53.324;6.862;2022-09-16T18:15:22;12.68;;;2.22;;
52866;SDS011;38739;53.324;6.862;2022-09-16T18:17:49;23.05;;;2.80;;
52866;SDS011;38739;53.324;6.862;2022-09-16T18:20:15;17.50;;;2.33;;
52866;SDS011;38739;53.324;6.862;2022-09-16T18:22:41;21.92;;;2.95;;
52866;SDS011;38739;53.324;6.862;2022-09-16T18:25:07;21.83;;;3.05;;
52866;SDS011;38739;53.324;6.862;2022-09-16T18:27:33;26.10;;;3.50;;
52866;SDS011;38739;53.324;6.862;2022-09-16T18:29:58;29.17;;;2.83;;